KMVN Airport (Mount Vernon) Information

FAA: MVN - ICAO: KMVN

KMVN Airport Location

State Illinois
County Jefferson
City Mount Vernon
KMVN Airport is 3 miles east of Mount Vernon, IL.
Latitude 38-19-24.1000N
Longitude 088-51-30.6000W
Elevation 480ft

KMVN Airport METARs

METAR KMVN 181256Z AUTO 00000KT 10SM CLR M04/M04 A3007 RMK AO2 SLP194 T10441044 FZRANO
Altimeter 30.07"
Temperature -4.4°C (24.1°F)
Wind 0° at 0KT
Clouds Skies are clear.
Visibility 10.0mi
Time observed: 2022-01-18T12:56:00Z

KMVN Airport Details

Status Operational
Activation April 1940
Ownership Public
Usage Public
Chart ST LOUIS
ATC on-site No
Beacon schedule sunset-sunrise
Beacon color clear green

KMVN Airport Contacts

Owner MT VERNON ARPT AUTHORITY
Owner address 100 AVIATION DRIVE, MT VERNON, IL 62864
Owner phone 618-242-7016
Manager HERBERT TAUTZ
Manager address 20832 HWY 52 - PO BOX 228, MOUNT CARROLL, IL 61053-0228
Manager phone 815-535-3754

KMVN Airport (Mount Vernon) Radio Frequencies

KMVN (Airport) Radio Frequencies

UNICOM 123
Common traffic advisory frequency (CTAF) 123